Time;durP1;ratioP1;P1;durP2;ratioP2;P2;SDS_P1;SDS_P2;PMS_P1;PMS_P2;Temp;Humidity;BMP_temperature;BMP_pressure;BME280_temperature;BME280_humidity;BME280_pressure;Samples;Min_cycle;Max_cycle;Signal;HPM_P1;HPM_P2
2022/09/24 00:01:37;;;;;;;19.30;14.60;;;;;;;;;;4949403;28;20285;-74
2022/09/24 00:04:04;;;;;;;21.38;15.25;;;;;;;;;;4957986;28;20234;-73
2022/09/24 00:06:29;;;;;;;17.65;13.90;;;;;;;;;;4954263;28;20320;-73
2022/09/24 00:08:56;;;;;;;17.90;14.30;;;;;;;;;;4949219;28;20331;-74
2022/09/24 00:11:23;;;;;;;20.13;14.57;;;;;;;;;;4965588;28;20176;-73
2022/09/24 00:13:49;;;;;;;16.85;13.77;;;;;;;;;;4972745;28;20172;-74
2022/09/24 00:16:15;;;;;;;16.88;13.48;;;;;;;;;;4968283;28;20183;-74
2022/09/24 00:18:41;;;;;;;19.02;14.93;;;;;;;;;;4981781;28;20195;-74
2022/09/24 00:21:17;;;;;;;17.95;13.68;;;;;;;;;;4975216;28;20199;-74
2022/09/24 00:23:43;;;;;;;17.38;13.73;;;;;;;;;;4975162;28;20525;-74
2022/09/24 00:28:53;;;;;;;16.52;12.95;;;;;;;;;;4972894;28;20211;-74
2022/09/24 00:31:18;;;;;;;18.30;13.45;;;;;;;;;;4969007;28;20588;-74
2022/09/24 00:33:43;;;;;;;16.48;13.95;;;;;;;;;;4967758;28;20180;-74
2022/09/24 00:36:09;;;;;;;18.90;14.27;;;;;;;;;;4971819;28;20235;-74
2022/09/24 00:38:34;;;;;;;18.42;13.68;;;;;;;;;;4978714;28;20586;-74
2022/09/24 00:41:00;;;;;;;19.58;14.70;;;;;;;;;;4977800;28;20183;-75
2022/09/24 00:43:33;;;;;;;17.77;14.73;;;;;;;;;;4970169;28;20267;-74
2022/09/24 00:46:14;;;;;;;19.67;14.27;;;;;;;;;;4972176;28;20892;-74
2022/09/24 00:48:40;;;;;;;21.42;15.40;;;;;;;;;;4969710;28;20208;-74
2022/09/24 00:51:06;;;;;;;22.40;16.35;;;;;;;;;;4970459;28;20194;-74
2022/09/24 00:53:32;;;;;;;19.70;15.60;;;;;;;;;;4967213;28;20651;-74
2022/09/24 00:55:58;;;;;;;19.63;15.40;;;;;;;;;;4968700;28;20231;-74
2022/09/24 00:58:23;;;;;;;23.95;17.40;;;;;;;;;;4971135;28;20556;-74
2022/09/24 01:00:50;;;;;;;21.60;16.65;;;;;;;;;;4967478;28;20176;-74
2022/09/24 01:03:18;;;;;;;22.25;15.93;;;;;;;;;;4972006;28;20195;-74
2022/09/24 01:05:43;;;;;;;25.40;17.55;;;;;;;;;;4969988;28;20591;-74
2022/09/24 01:08:12;;;;;;;26.13;20.05;;;;;;;;;;4962626;28;20185;-74
2022/09/24 01:11:00;;;;;;;21.70;17.33;;;;;;;;;;4973205;28;20826;-74
2022/09/24 01:13:25;;;;;;;24.73;17.85;;;;;;;;;;4949510;28;20196;-74
2022/09/24 01:15:55;;;;;;;26.75;17.95;;;;;;;;;;4966542;28;20176;-74
2022/09/24 01:18:30;;;;;;;24.13;17.65;;;;;;;;;;4971634;28;20184;-74
2022/09/24 01:21:10;;;;;;;24.45;18.02;;;;;;;;;;4970860;28;20274;-74
2022/09/24 01:23:41;;;;;;;26.25;17.77;;;;;;;;;;4969602;28;20243;-74
2022/09/24 01:26:21;;;;;;;22.77;17.20;;;;;;;;;;4967574;28;20200;-74
2022/09/24 01:29:05;;;;;;;24.85;18.13;;;;;;;;;;4967883;28;20247;-74
2022/09/24 01:31:34;;;;;;;24.40;17.55;;;;;;;;;;4970356;28;20247;-74
2022/09/24 01:34:02;;;;;;;24.48;17.80;;;;;;;;;;4971899;28;20600;-74
2022/09/24 01:36:28;;;;;;;23.15;16.45;;;;;;;;;;4972471;28;20200;-74
2022/09/24 01:38:54;;;;;;;20.65;16.40;;;;;;;;;;4968713;28;20627;-74
2022/09/24 01:41:19;;;;;;;23.08;16.05;;;;;;;;;;4971320;28;20181;-74
2022/09/24 01:43:45;;;;;;;20.55;16.05;;;;;;;;;;4959603;28;20254;-74
2022/09/24 01:46:11;;;;;;;19.92;14.95;;;;;;;;;;4971287;28;20185;-74
2022/09/24 01:48:37;;;;;;;19.98;14.35;;;;;;;;;;4969938;28;20250;-74
2022/09/24 01:51:29;;;;;;;19.05;14.38;;;;;;;;;;4970192;28;20271;-74
2022/09/24 01:54:02;;;;;;;23.63;14.98;;;;;;;;;;4954561;28;20220;-74
2022/09/24 01:56:46;;;;;;;18.17;13.77;;;;;;;;;;4969368;28;20177;-74
2022/09/24 01:59:13;;;;;;;18.40;13.57;;;;;;;;;;4965522;28;20208;-74
2022/09/24 02:01:50;;;;;;;19.38;14.35;;;;;;;;;;4961461;28;20184;-74
2022/09/24 02:04:18;;;;;;;19.67;14.95;;;;;;;;;;4970553;28;20582;-74
2022/09/24 02:06:46;;;;;;;20.60;14.52;;;;;;;;;;4965483;28;20180;-74
2022/09/24 02:09:38;;;;;;;17.25;13.20;;;;;;;;;;4970837;28;20624;-75
2022/09/24 02:12:09;;;;;;;17.85;12.90;;;;;;;;;;4962776;28;20199;-75
2022/09/24 02:14:41;;;;;;;19.63;13.73;;;;;;;;;;4969529;28;20184;-75
2022/09/24 02:17:08;;;;;;;18.98;13.35;;;;;;;;;;4959924;28;20180;-75
2022/09/24 02:19:34;;;;;;;20.80;14.82;;;;;;;;;;4970965;28;20480;-74
2022/09/24 02:21:59;;;;;;;19.25;13.48;;;;;;;;;;4971755;28;20188;-75
2022/09/24 02:24:30;;;;;;;20.23;15.27;;;;;;;;;;4974955;28;20183;-74
2022/09/24 02:26:56;;;;;;;25.00;16.38;;;;;;;;;;4971201;28;20192;-75
2022/09/24 02:29:22;;;;;;;24.30;16.52;;;;;;;;;;4972059;28;20212;-75
2022/09/24 02:31:48;;;;;;;23.00;15.68;;;;;;;;;;4972354;28;20262;-75
2022/09/24 02:34:19;;;;;;;22.45;15.60;;;;;;;;;;4970190;28;20195;-74
2022/09/24 02:36:45;;;;;;;23.17;15.68;;;;;;;;;;4972448;28;20535;-75
2022/09/24 02:39:11;;;;;;;22.40;16.40;;;;;;;;;;4973949;28;20274;-75
2022/09/24 02:41:36;;;;;;;22.55;16.38;;;;;;;;;;4970548;28;20252;-75
2022/09/24 02:44:01;;;;;;;23.23;15.77;;;;;;;;;;4974416;28;20228;-75
2022/09/24 02:46:26;;;;;;;23.33;16.60;;;;;;;;;;4967753;28;20286;-75
2022/09/24 02:48:52;;;;;;;23.25;16.50;;;;;;;;;;4970696;28;20204;-74
2022/09/24 02:51:17;;;;;;;21.60;15.95;;;;;;;;;;4972585;28;20177;-74
2022/09/24 02:53:42;;;;;;;23.92;16.33;;;;;;;;;;4974436;28;20604;-75
2022/09/24 02:56:07;;;;;;;24.67;16.92;;;;;;;;;;4973666;28;20270;-75
2022/09/24 02:58:33;;;;;;;21.25;14.85;;;;;;;;;;4973203;28;20206;-75
2022/09/24 03:00:58;;;;;;;23.95;17.25;;;;;;;;;;4968616;28;20189;-75
2022/09/24 03:03:23;;;;;;;25.00;16.73;;;;;;;;;;4971005;28;20263;-75
2022/09/24 03:05:51;;;;;;;23.80;16.42;;;;;;;;;;4974197;28;20185;-75
2022/09/24 03:08:17;;;;;;;29.15;19.50;;;;;;;;;;4975006;28;20266;-73
2022/09/24 03:10:42;;;;;;;25.00;17.27;;;;;;;;;;4967238;28;20268;-75
2022/09/24 03:13:07;;;;;;;25.73;17.48;;;;;;;;;;4970210;28;20260;-73
2022/09/24 03:15:32;;;;;;;25.90;17.85;;;;;;;;;;4967466;28;20178;-75
2022/09/24 03:17:58;;;;;;;28.05;18.20;;;;;;;;;;4970178;28;20185;-73
2022/09/24 03:20:23;;;;;;;28.92;20.60;;;;;;;;;;4972561;28;20224;-73
2022/09/24 03:22:52;;;;;;;30.00;19.90;;;;;;;;;;4972788;28;20176;-71
2022/09/24 03:25:17;;;;;;;27.75;18.75;;;;;;;;;;4973891;28;20187;-71
2022/09/24 03:27:42;;;;;;;32.58;20.83;;;;;;;;;;4972999;28;20176;-71
2022/09/24 03:32:51;;;;;;;26.48;18.70;;;;;;;;;;4972020;28;20190;-71
2022/09/24 03:35:17;;;;;;;28.60;19.73;;;;;;;;;;4972289;28;20184;-72
2022/09/24 03:37:42;;;;;;;28.52;19.08;;;;;;;;;;4972167;28;20176;-71
2022/09/24 03:40:08;;;;;;;29.20;19.67;;;;;;;;;;4973053;28;20211;-71
2022/09/24 03:42:33;;;;;;;26.63;18.60;;;;;;;;;;4970388;28;20614;-72
2022/09/24 03:44:59;;;;;;;29.15;20.48;;;;;;;;;;4973844;28;20647;-71
2022/09/24 03:47:24;;;;;;;27.02;18.98;;;;;;;;;;4973471;28;20192;-71
2022/09/24 03:49:49;;;;;;;29.52;19.80;;;;;;;;;;4971467;28;20216;-71
2022/09/24 03:52:14;;;;;;;26.10;18.95;;;;;;;;;;4971270;28;20642;-72
2022/09/24 03:54:39;;;;;;;26.65;18.95;;;;;;;;;;4973068;28;20646;-72
2022/09/24 03:57:05;;;;;;;25.65;18.70;;;;;;;;;;4972754;28;20263;-71
2022/09/24 03:59:30;;;;;;;30.20;19.88;;;;;;;;;;4971370;28;20207;-72
2022/09/24 04:01:55;;;;;;;24.35;18.65;;;;;;;;;;4972099;28;20176;-72
2022/09/24 04:04:20;;;;;;;23.05;17.13;;;;;;;;;;4973700;28;20219;-71
2022/09/24 04:06:45;;;;;;;25.15;18.45;;;;;;;;;;4968116;28;20565;-74
2022/09/24 04:09:11;;;;;;;24.70;18.38;;;;;;;;;;4965585;28;20208;-71
2022/09/24 04:11:36;;;;;;;23.15;18.17;;;;;;;;;;4970962;28;20554;-71
2022/09/24 04:14:02;;;;;;;27.20;19.38;;;;;;;;;;4968706;28;20175;-71
2022/09/24 04:16:27;;;;;;;43.13;19.25;;;;;;;;;;4973706;28;20175;-72
2022/09/24 04:18:52;;;;;;;24.30;17.33;;;;;;;;;;4970986;28;20216;-72
2022/09/24 04:21:18;;;;;;;24.33;17.48;;;;;;;;;;4973411;28;20188;-71
2022/09/24 04:23:43;;;;;;;21.42;16.85;;;;;;;;;;4973773;28;20177;-72
2022/09/24 04:26:08;;;;;;;22.67;16.40;;;;;;;;;;4971772;28;20263;-72
2022/09/24 04:28:34;;;;;;;23.77;16.55;;;;;;;;;;4972365;28;20204;-71
2022/09/24 04:30:59;;;;;;;24.10;17.88;;;;;;;;;;4971881;28;20187;-71
2022/09/24 04:33:25;;;;;;;23.02;16.50;;;;;;;;;;4972767;28;20636;-72
2022/09/24 04:35:50;;;;;;;23.52;16.08;;;;;;;;;;4970750;28;20180;-72
2022/09/24 04:38:15;;;;;;;24.73;17.85;;;;;;;;;;4975687;28;20191;-72
2022/09/24 04:40:40;;;;;;;24.15;17.52;;;;;;;;;;4969598;28;20184;-71
2022/09/24 04:43:05;;;;;;;23.88;17.20;;;;;;;;;;4966741;28;20195;-72
2022/09/24 04:45:32;;;;;;;22.80;16.75;;;;;;;;;;4970376;28;20203;-71
2022/09/24 04:47:57;;;;;;;25.95;18.08;;;;;;;;;;4978691;28;20200;-71
2022/09/24 04:50:26;;;;;;;23.20;16.17;;;;;;;;;;4971328;28;20278;-71
2022/09/24 04:52:51;;;;;;;23.45;16.73;;;;;;;;;;4968719;28;20177;-72
2022/09/24 04:55:18;;;;;;;24.73;16.92;;;;;;;;;;4973731;28;20195;-72
2022/09/24 04:57:44;;;;;;;24.08;16.70;;;;;;;;;;4968525;28;20172;-72
2022/09/24 05:00:13;;;;;;;22.73;15.50;;;;;;;;;;4967365;28;20204;-71
2022/09/24 05:02:38;;;;;;;23.02;16.58;;;;;;;;;;4967756;28;20184;-72
2022/09/24 05:05:04;;;;;;;23.65;17.15;;;;;;;;;;4968641;28;20605;-72
2022/09/24 05:07:29;;;;;;;22.23;16.77;;;;;;;;;;4969181;28;20627;-72
2022/09/24 05:09:56;;;;;;;21.70;15.80;;;;;;;;;;4967973;28;20200;-72
2022/09/24 05:12:21;;;;;;;24.80;16.70;;;;;;;;;;4967325;28;20187;-72
2022/09/24 05:14:47;;;;;;;22.80;16.83;;;;;;;;;;4971174;28;20176;-72
2022/09/24 05:17:12;;;;;;;23.67;17.00;;;;;;;;;;4969127;28;20184;-71
2022/09/24 05:19:37;;;;;;;23.42;18.08;;;;;;;;;;4962493;28;20211;-74
2022/09/24 05:22:03;;;;;;;23.95;17.33;;;;;;;;;;4964860;28;20280;-72
2022/09/24 05:24:28;;;;;;;24.67;16.63;;;;;;;;;;4970091;28;20180;-72
2022/09/24 05:27:09;;;;;;;23.52;16.65;;;;;;;;;;4970040;28;20662;-72
2022/09/24 05:29:38;;;;;;;24.67;17.27;;;;;;;;;;4967057;28;20219;-72
2022/09/24 05:32:08;;;;;;;25.15;17.23;;;;;;;;;;4967750;28;20292;-75
2022/09/24 05:34:33;;;;;;;27.00;17.85;;;;;;;;;;4970536;28;20588;-72
2022/09/24 05:36:59;;;;;;;25.10;17.13;;;;;;;;;;4968563;28;20238;-75
2022/09/24 05:39:24;;;;;;;25.38;16.98;;;;;;;;;;4971473;28;20200;-73
2022/09/24 05:41:49;;;;;;;25.10;17.63;;;;;;;;;;4968852;28;20188;-73
2022/09/24 05:44:14;;;;;;;24.58;17.55;;;;;;;;;;4969334;28;20263;-72
2022/09/24 05:46:40;;;;;;;23.35;16.13;;;;;;;;;;4969556;28;20207;-72
2022/09/24 05:49:05;;;;;;;26.33;18.42;;;;;;;;;;4968399;28;20216;-75
2022/09/24 05:51:30;;;;;;;23.35;16.35;;;;;;;;;;4967939;28;20235;-75
2022/09/24 05:53:55;;;;;;;24.60;17.08;;;;;;;;;;4967988;28;20184;-74
2022/09/24 05:56:20;;;;;;;26.08;16.83;;;;;;;;;;4965417;28;20192;-75
2022/09/24 05:58:49;;;;;;;25.40;17.23;;;;;;;;;;4965868;28;20208;-74
2022/09/24 06:01:14;;;;;;;27.42;19.63;;;;;;;;;;4959245;28;20180;-74
2022/09/24 06:03:39;;;;;;;26.58;19.23;;;;;;;;;;4964824;28;20272;-74
2022/09/24 06:06:05;;;;;;;24.95;16.70;;;;;;;;;;4969262;28;20642;-74
2022/09/24 06:08:31;;;;;;;25.90;18.05;;;;;;;;;;4968105;28;20283;-73
2022/09/24 06:10:58;;;;;;;27.65;18.60;;;;;;;;;;4971251;28;20175;-75
2022/09/24 06:13:23;;;;;;;26.58;18.48;;;;;;;;;;4966730;28;20264;-74
2022/09/24 06:15:49;;;;;;;24.02;17.67;;;;;;;;;;4971347;28;20267;-74
2022/09/24 06:18:14;;;;;;;28.02;20.05;;;;;;;;;;4968770;28;20596;-75
2022/09/24 06:20:39;;;;;;;25.35;17.73;;;;;;;;;;4971739;28;20662;-72
2022/09/24 06:23:05;;;;;;;29.00;19.83;;;;;;;;;;4971626;28;20180;-74
2022/09/24 06:25:30;;;;;;;27.67;19.02;;;;;;;;;;4970316;28;20188;-71
2022/09/24 06:27:59;;;;;;;28.38;18.55;;;;;;;;;;4982169;28;20219;-72
2022/09/24 06:30:24;;;;;;;27.38;19.10;;;;;;;;;;4971495;28;20628;-73
2022/09/24 06:32:50;;;;;;;26.27;18.10;;;;;;;;;;4979066;28;20280;-73
2022/09/24 06:35:15;;;;;;;27.88;19.15;;;;;;;;;;4976978;28;20183;-73
2022/09/24 06:37:40;;;;;;;28.20;18.33;;;;;;;;;;4983019;28;20172;-73
2022/09/24 06:40:06;;;;;;;25.88;17.55;;;;;;;;;;4972242;28;20279;-73
2022/09/24 06:42:31;;;;;;;27.85;18.85;;;;;;;;;;4971575;28;20208;-73
2022/09/24 06:44:56;;;;;;;25.70;17.23;;;;;;;;;;4974065;28;20555;-72
2022/09/24 06:47:22;;;;;;;28.85;19.02;;;;;;;;;;4970033;28;20192;-72
2022/09/24 06:49:49;;;;;;;24.65;15.95;;;;;;;;;;4967190;28;20211;-72
2022/09/24 06:52:15;;;;;;;25.83;18.02;;;;;;;;;;4968435;28;20193;-72
2022/09/24 06:54:40;;;;;;;25.40;18.38;;;;;;;;;;4965146;28;20176;-72
2022/09/24 06:57:05;;;;;;;26.27;17.95;;;;;;;;;;4971345;28;20563;-72
2022/09/24 06:59:30;;;;;;;25.50;18.15;;;;;;;;;;4969999;28;20283;-71
2022/09/24 07:01:57;;;;;;;26.25;19.20;;;;;;;;;;4960639;28;20182;-73
2022/09/24 07:04:22;;;;;;;24.52;17.75;;;;;;;;;;4970012;28;20231;-71
2022/09/24 07:09:31;;;;;;;24.67;18.38;;;;;;;;;;4971525;28;20242;-72
2022/09/24 07:12:03;;;;;;;28.63;20.05;;;;;;;;;;4964005;28;20213;-71
2022/09/24 07:14:28;;;;;;;27.52;19.02;;;;;;;;;;4967052;28;20219;-72
2022/09/24 07:16:54;;;;;;;25.52;18.90;;;;;;;;;;4966781;28;20631;-72
2022/09/24 07:19:19;;;;;;;24.83;17.63;;;;;;;;;;4977002;28;20215;-73
2022/09/24 07:21:44;;;;;;;26.10;18.13;;;;;;;;;;4970444;28;20176;-72
2022/09/24 07:24:09;;;;;;;22.90;17.25;;;;;;;;;;4969303;28;20184;-72
2022/09/24 07:26:35;;;;;;;26.50;17.95;;;;;;;;;;4970806;28;20255;-73
2022/09/24 07:29:01;;;;;;;22.13;16.60;;;;;;;;;;4970246;28;20205;-72
2022/09/24 07:31:26;;;;;;;22.35;17.02;;;;;;;;;;4969757;28;20177;-72
2022/09/24 07:33:52;;;;;;;23.70;16.90;;;;;;;;;;4972348;28;20263;-71
2022/09/24 07:36:17;;;;;;;19.60;15.20;;;;;;;;;;4968378;28;20184;-71
2022/09/24 07:38:43;;;;;;;19.95;14.60;;;;;;;;;;4971811;28;20204;-71
2022/09/24 07:41:08;;;;;;;18.58;15.43;;;;;;;;;;4967897;28;20240;-72
2022/09/24 07:43:34;;;;;;;17.98;13.38;;;;;;;;;;4962466;28;20180;-72
2022/09/24 07:45:59;;;;;;;20.20;14.82;;;;;;;;;;4968783;28;20187;-71
2022/09/24 07:48:24;;;;;;;16.35;13.63;;;;;;;;;;4971859;28;20271;-73
2022/09/24 07:50:50;;;;;;;17.50;14.32;;;;;;;;;;4972397;28;20208;-71
2022/09/24 07:53:15;;;;;;;17.35;13.77;;;;;;;;;;4967731;28;20251;-72
2022/09/24 07:55:41;;;;;;;16.35;13.23;;;;;;;;;;4965211;28;20199;-72
2022/09/24 07:58:07;;;;;;;16.42;12.77;;;;;;;;;;4969784;28;20208;-71
2022/09/24 08:00:33;;;;;;;16.15;12.68;;;;;;;;;;4972229;28;20702;-72
2022/09/24 08:03:00;;;;;;;18.80;14.60;;;;;;;;;;4970701;28;20200;-72
2022/09/24 08:05:25;;;;;;;15.15;12.70;;;;;;;;;;4971693;28;20184;-72
2022/09/24 08:07:51;;;;;;;18.77;14.45;;;;;;;;;;4970566;28;20172;-72
2022/09/24 08:10:16;;;;;;;16.65;13.25;;;;;;;;;;4972775;28;20695;-73
2022/09/24 08:12:42;;;;;;;15.68;12.35;;;;;;;;;;4975746;28;20271;-73
2022/09/24 08:15:07;;;;;;;13.98;10.98;;;;;;;;;;4971517;28;20642;-73
2022/09/24 08:17:32;;;;;;;13.75;10.98;;;;;;;;;;4966360;28;20576;-72
2022/09/24 08:19:57;;;;;;;14.98;11.55;;;;;;;;;;4967601;28;20318;-72
2022/09/24 08:22:23;;;;;;;11.52;8.90;;;;;;;;;;4969770;28;20212;-73
2022/09/24 08:24:49;;;;;;;10.65;7.97;;;;;;;;;;4970198;28;20254;-73
2022/09/24 08:27:14;;;;;;;11.32;8.45;;;;;;;;;;4971447;28;20195;-74
2022/09/24 08:29:40;;;;;;;10.40;8.35;;;;;;;;;;4970221;28;20689;-72
2022/09/24 08:32:05;;;;;;;9.93;8.02;;;;;;;;;;4967952;28;20196;-73
2022/09/24 08:34:37;;;;;;;9.68;7.00;;;;;;;;;;4969510;28;20181;-72
2022/09/24 08:37:02;;;;;;;8.73;7.32;;;;;;;;;;4969135;28;20187;-72
2022/09/24 08:39:28;;;;;;;8.88;7.20;;;;;;;;;;4969389;28;20565;-72
2022/09/24 08:41:59;;;;;;;7.78;6.97;;;;;;;;;;4969213;28;20726;-72
2022/09/24 08:47:31;;;;;;;7.70;6.90;;;;;;;;;;4967064;28;20188;-73
2022/09/24 08:50:10;;;;;;;8.27;6.43;;;;;;;;;;4967746;28;20219;-72
2022/09/24 08:52:38;;;;;;;9.02;7.13;;;;;;;;;;4969954;28;20184;-72
2022/09/24 08:55:21;;;;;;;7.93;6.68;;;;;;;;;;4965901;28;20242;-72
2022/09/24 08:58:04;;;;;;;9.38;6.53;;;;;;;;;;4968870;28;20267;-72
2022/09/24 09:00:35;;;;;;;9.45;6.60;;;;;;;;;;4968002;28;20303;-72
2022/09/24 09:03:07;;;;;;;9.20;6.15;;;;;;;;;;4969180;28;20601;-71
2022/09/24 09:05:59;;;;;;;9.18;6.78;;;;;;;;;;4969691;28;20181;-71
2022/09/24 09:08:33;;;;;;;7.15;6.10;;;;;;;;;;4968852;28;20200;-71
2022/09/24 09:11:01;;;;;;;9.38;6.18;;;;;;;;;;4965489;28;20203;-71
2022/09/24 09:13:29;;;;;;;7.28;5.70;;;;;;;;;;4968901;28;20174;-71
2022/09/24 09:16:05;;;;;;;10.73;6.55;;;;;;;;;;4971759;28;20212;-71
2022/09/24 09:18:36;;;;;;;9.20;6.50;;;;;;;;;;4962692;28;20593;-72
2022/09/24 09:21:20;;;;;;;11.70;7.65;;;;;;;;;;4967947;28;20250;-72
2022/09/24 09:23:49;;;;;;;10.45;6.72;;;;;;;;;;4961135;28;20564;-73
2022/09/24 09:26:17;;;;;;;9.75;6.82;;;;;;;;;;4968295;28;20173;-73
2022/09/24 09:28:43;;;;;;;9.77;6.75;;;;;;;;;;4969906;28;20227;-74
2022/09/24 09:31:17;;;;;;;7.85;6.22;;;;;;;;;;4971990;28;20208;-74
2022/09/24 09:33:53;;;;;;;10.07;7.07;;;;;;;;;;4969560;28;20187;-73
2022/09/24 09:36:27;;;;;;;8.45;6.50;;;;;;;;;;4971177;28;20183;-72
2022/09/24 09:38:53;;;;;;;8.63;6.20;;;;;;;;;;4971564;28;20696;-73
2022/09/24 09:41:35;;;;;;;8.38;6.22;;;;;;;;;;4970327;28;20187;-74
2022/09/24 09:44:09;;;;;;;8.18;5.88;;;;;;;;;;4964346;28;20280;-72
2022/09/24 09:46:36;;;;;;;8.07;5.97;;;;;;;;;;4968040;28;20570;-74
2022/09/24 09:49:04;;;;;;;8.68;5.50;;;;;;;;;;4965133;28;20215;-74
2022/09/24 09:51:33;;;;;;;6.38;4.95;;;;;;;;;;4967293;28;20528;-74
2022/09/24 09:54:00;;;;;;;6.05;4.30;;;;;;;;;;4967138;28;20251;-73
2022/09/24 09:56:35;;;;;;;4.28;3.72;;;;;;;;;;4965681;28;20176;-74
2022/09/24 09:59:05;;;;;;;4.93;3.65;;;;;;;;;;4965191;28;20204;-72
2022/09/24 10:01:32;;;;;;;4.13;3.58;;;;;;;;;;4966769;28;20185;-75
2022/09/24 10:04:01;;;;;;;5.05;3.80;;;;;;;;;;4967961;28;20234;-72
2022/09/24 10:06:31;;;;;;;5.63;3.85;;;;;;;;;;4968525;28;20599;-72
2022/09/24 10:09:07;;;;;;;4.35;3.47;;;;;;;;;;4970893;28;20704;-73
2022/09/24 10:11:32;;;;;;;3.30;2.42;;;;;;;;;;4970628;28;20180;-73
2022/09/24 10:14:03;;;;;;;4.30;2.47;;;;;;;;;;4964338;28;20191;-73
2022/09/24 10:16:29;;;;;;;3.22;2.65;;;;;;;;;;4971988;28;20642;-73
2022/09/24 10:18:54;;;;;;;5.15;2.40;;;;;;;;;;4960625;28;20263;-74
2022/09/24 10:21:28;;;;;;;4.60;2.53;;;;;;;;;;4969807;28;20203;-74
2022/09/24 10:23:57;;;;;;;5.70;2.10;;;;;;;;;;4970922;28;20180;-73
2022/09/24 10:26:32;;;;;;;2.63;2.13;;;;;;;;;;4969039;28;20273;-73
2022/09/24 10:31:44;;;;;;;2.70;1.95;;;;;;;;;;4965651;28;20332;-73
2022/09/24 10:34:25;;;;;;;2.85;2.22;;;;;;;;;;4969835;28;20254;-74
2022/09/24 10:36:51;;;;;;;2.15;1.83;;;;;;;;;;4971578;28;20182;-74
2022/09/24 10:39:17;;;;;;;3.70;2.10;;;;;;;;;;4967904;28;20693;-74
2022/09/24 10:41:52;;;;;;;2.90;1.88;;;;;;;;;;4968581;28;20184;-74
2022/09/24 10:44:19;;;;;;;2.35;2.15;;;;;;;;;;4972630;28;20222;-74
2022/09/24 10:47:06;;;;;;;3.75;1.90;;;;;;;;;;4976305;28;20674;-72
2022/09/24 10:50:04;;;;;;;3.08;2.53;;;;;;;;;;4971606;28;20207;-74
2022/09/24 10:52:35;;;;;;;2.63;1.90;;;;;;;;;;4944827;28;20248;-76
2022/09/24 10:55:16;;;;;;;2.55;1.85;;;;;;;;;;4971803;28;20763;-75
2022/09/24 10:57:48;;;;;;;2.25;1.80;;;;;;;;;;4977231;28;20179;-75
2022/09/24 11:00:17;;;;;;;2.60;2.13;;;;;;;;;;4967626;28;20627;-75
2022/09/24 11:02:48;;;;;;;3.15;2.40;;;;;;;;;;4976245;28;20188;-74
2022/09/24 11:05:17;;;;;;;2.63;2.22;;;;;;;;;;4974824;28;20185;-75
2022/09/24 11:08:01;;;;;;;4.05;1.85;;;;;;;;;;4970523;28;20180;-74
2022/09/24 11:10:29;;;;;;;2.83;2.10;;;;;;;;;;4972939;28;20216;-75
2022/09/24 11:13:14;;;;;;;4.35;2.33;;;;;;;;;;4964655;28;20216;-74
2022/09/24 11:15:39;;;;;;;2.53;2.08;;;;;;;;;;4971064;28;20177;-74
2022/09/24 11:18:17;;;;;;;3.53;2.38;;;;;;;;;;4971982;28;20673;-72
2022/09/24 11:20:48;;;;;;;6.00;3.60;;;;;;;;;;4968324;28;20199;-75
2022/09/24 11:23:21;;;;;;;6.05;3.63;;;;;;;;;;4971319;28;20219;-74
2022/09/24 11:25:53;;;;;;;5.65;3.42;;;;;;;;;;4965801;28;20257;-72
2022/09/24 11:28:18;;;;;;;5.60;3.53;;;;;;;;;;4971880;28;20450;-72
2022/09/24 11:30:49;;;;;;;5.72;3.22;;;;;;;;;;4971427;28;20210;-73
2022/09/24 11:33:17;;;;;;;5.72;3.33;;;;;;;;;;4968930;28;20180;-73
2022/09/24 11:35:55;;;;;;;4.25;2.50;;;;;;;;;;4973896;28;20172;-72
2022/09/24 11:38:28;;;;;;;3.53;2.10;;;;;;;;;;4970685;28;20176;-74
2022/09/24 11:40:53;;;;;;;5.40;1.75;;;;;;;;;;4968734;28;20595;-73
2022/09/24 11:43:37;;;;;;;5.63;2.38;;;;;;;;;;4968977;28;20219;-73
2022/09/24 11:46:10;;;;;;;5.55;2.47;;;;;;;;;;4969990;28;20180;-72
2022/09/24 11:48:36;;;;;;;3.53;1.73;;;;;;;;;;4973990;28;20205;-72
2022/09/24 11:51:13;;;;;;;4.78;2.00;;;;;;;;;;4965227;28;20261;-72
2022/09/24 11:53:42;;;;;;;5.18;1.50;;;;;;;;;;4965232;28;20186;-72
2022/09/24 11:56:10;;;;;;;5.40;1.73;;;;;;;;;;4970194;28;20177;-74
2022/09/24 11:58:42;;;;;;;2.90;1.70;;;;;;;;;;4970901;28;20211;-74
2022/09/24 12:01:28;;;;;;;1.42;1.02;;;;;;;;;;4965865;28;20176;-73
2022/09/24 12:04:03;;;;;;;5.70;2.33;;;;;;;;;;4970013;28;20302;-73
2022/09/24 12:06:36;;;;;;;6.15;1.85;;;;;;;;;;4967631;28;20180;-73
2022/09/24 12:09:14;;;;;;;1.73;1.45;;;;;;;;;;4961977;28;20303;-72
2022/09/24 12:11:42;;;;;;;4.47;1.70;;;;;;;;;;4965740;28;20183;-74
2022/09/24 12:14:18;;;;;;;7.72;2.85;;;;;;;;;;4966259;28;20177;-74
2022/09/24 12:16:46;;;;;;;3.47;1.90;;;;;;;;;;4970877;28;20176;-74
2022/09/24 12:19:23;;;;;;;4.80;1.42;;;;;;;;;;4971187;28;20228;-74
2022/09/24 12:21:50;;;;;;;4.47;1.83;;;;;;;;;;4970839;28;20176;-74
2022/09/24 12:24:28;;;;;;;4.90;2.03;;;;;;;;;;4974201;28;20557;-74
2022/09/24 12:26:56;;;;;;;5.90;1.77;;;;;;;;;;4973868;28;20192;-74
2022/09/24 12:32:54;;;;;;;4.65;1.70;;;;;;;;;;4964270;28;20278;-73
2022/09/24 12:35:20;;;;;;;6.07;2.42;;;;;;;;;;4971010;28;20553;-73
2022/09/24 12:37:48;;;;;;;4.07;1.60;;;;;;;;;;4967279;28;20175;-74
2022/09/24 12:40:32;;;;;;;4.55;1.58;;;;;;;;;;4972360;28;20323;-74
2022/09/24 12:42:58;;;;;;;5.13;1.73;;;;;;;;;;4970413;28;20202;-74
2022/09/24 12:45:24;;;;;;;3.88;1.85;;;;;;;;;;4968125;28;20223;-74
2022/09/24 12:47:58;;;;;;;6.25;1.63;;;;;;;;;;4968008;28;20205;-74
2022/09/24 12:50:26;;;;;;;5.03;2.00;;;;;;;;;;4971783;28;20230;-74
2022/09/24 12:52:52;;;;;;;7.40;1.65;;;;;;;;;;4965666;28;20259;-74
2022/09/24 12:55:19;;;;;;;6.68;3.63;;;;;;;;;;4969623;28;20334;-72
2022/09/24 12:57:50;;;;;;;5.30;2.08;;;;;;;;;;4968091;28;20183;-73
2022/09/24 13:00:31;;;;;;;6.07;2.55;;;;;;;;;;4970844;28;20761;-74
2022/09/24 13:02:57;;;;;;;8.20;1.83;;;;;;;;;;4967331;28;20188;-74
2022/09/24 13:05:22;;;;;;;4.93;1.83;;;;;;;;;;4968370;28;20275;-74
2022/09/24 13:07:56;;;;;;;4.20;1.60;;;;;;;;;;4966595;28;20202;-74
2022/09/24 13:10:24;;;;;;;2.95;1.58;;;;;;;;;;4973530;28;20276;-74
2022/09/24 13:12:49;;;;;;;4.97;1.83;;;;;;;;;;4974600;28;20178;-73
2022/09/24 13:15:35;;;;;;;8.52;3.00;;;;;;;;;;4967044;28;20256;-74
2022/09/24 13:18:03;;;;;;;4.82;1.70;;;;;;;;;;4970939;28;20275;-75
2022/09/24 13:20:29;;;;;;;4.22;1.30;;;;;;;;;;4971016;28;20270;-75
2022/09/24 13:22:54;;;;;;;6.80;3.15;;;;;;;;;;4977577;28;20697;-72
2022/09/24 13:25:21;;;;;;;5.05;1.70;;;;;;;;;;4977109;28;20836;-73
2022/09/24 13:28:00;;;;;;;6.65;3.15;;;;;;;;;;4977509;28;20176;-73
2022/09/24 13:30:29;;;;;;;5.72;2.75;;;;;;;;;;4971134;28;20247;-73
2022/09/24 13:33:16;;;;;;;3.97;2.22;;;;;;;;;;4967464;28;20263;-72
2022/09/24 13:35:49;;;;;;;8.77;1.98;;;;;;;;;;4965030;28;20188;-73
2022/09/24 13:38:14;;;;;;;5.45;2.08;;;;;;;;;;4968819;28;20180;-72
2022/09/24 13:40:40;;;;;;;6.07;2.25;;;;;;;;;;4964713;28;20266;-73
2022/09/24 13:43:16;;;;;;;9.30;3.13;;;;;;;;;;4968723;28;20207;-72
2022/09/24 13:45:43;;;;;;;6.28;1.92;;;;;;;;;;4969466;28;20701;-72
2022/09/24 13:48:24;;;;;;;5.30;1.50;;;;;;;;;;4969851;28;20184;-72
2022/09/24 13:50:50;;;;;;;4.15;1.30;;;;;;;;;;4966393;28;20214;-72
2022/09/24 13:53:21;;;;;;;2.88;0.90;;;;;;;;;;4964913;28;20263;-73
2022/09/24 13:55:54;;;;;;;4.65;1.48;;;;;;;;;;4962256;28;20180;-75
2022/09/24 13:58:40;;;;;;;6.63;1.65;;;;;;;;;;4968692;28;20517;-75
2022/09/24 14:01:14;;;;;;;3.85;1.50;;;;;;;;;;4964319;28;20210;-72
2022/09/24 14:03:40;;;;;;;5.80;1.40;;;;;;;;;;4961505;28;20661;-73
2022/09/24 14:06:09;;;;;;;2.78;1.30;;;;;;;;;;4971047;28;20207;-73
2022/09/24 14:08:37;;;;;;;3.90;1.27;;;;;;;;;;4969845;28;20601;-72
2022/09/24 14:11:26;;;;;;;2.90;1.08;;;;;;;;;;4970349;28;20223;-74
2022/09/24 14:13:53;;;;;;;7.68;1.85;;;;;;;;;;4975507;28;20172;-75
2022/09/24 14:16:20;;;;;;;5.63;1.10;;;;;;;;;;4986709;28;20263;-74
2022/09/24 14:18:46;;;;;;;5.72;1.30;;;;;;;;;;4970199;28;20192;-74
2022/09/24 14:21:14;;;;;;;6.38;1.60;;;;;;;;;;4973872;28;20556;-74
2022/09/24 14:23:43;;;;;;;6.07;1.40;;;;;;;;;;4973711;28;20179;-74
2022/09/24 14:26:14;;;;;;;6.95;1.13;;;;;;;;;;4975703;28;20269;-74
2022/09/24 14:28:39;;;;;;;5.38;1.80;;;;;;;;;;4974989;28;20200;-74
2022/09/24 14:31:06;;;;;;;2.15;1.02;;;;;;;;;;4980272;28;20242;-74
2022/09/24 14:33:32;;;;;;;3.53;1.13;;;;;;;;;;4976716;28;20183;-72
2022/09/24 14:35:59;;;;;;;6.65;1.50;;;;;;;;;;4973550;28;20172;-72
2022/09/24 14:38:28;;;;;;;4.43;1.20;;;;;;;;;;4977568;28;20591;-74
2022/09/24 14:40:53;;;;;;;5.38;1.60;;;;;;;;;;4968521;28;20275;-74
2022/09/24 14:43:37;;;;;;;6.97;1.27;;;;;;;;;;4977232;28;20263;-74
2022/09/24 14:46:05;;;;;;;4.35;1.27;;;;;;;;;;4973271;28;20188;-74
2022/09/24 14:48:32;;;;;;;7.65;2.53;;;;;;;;;;4973497;28;20764;-74
2022/09/24 14:50:57;;;;;;;7.05;1.77;;;;;;;;;;4964899;28;20208;-74
2022/09/24 14:53:25;;;;;;;3.50;1.75;;;;;;;;;;4975576;28;20231;-73
2022/09/24 14:55:51;;;;;;;3.88;1.52;;;;;;;;;;4972271;28;20181;-72